createdAt,value
2022-08-21T00:00:43.938Z,99516.25
2022-08-21T00:05:50.504Z,99512.03
2022-08-21T00:10:52.469Z,99523.06
2022-08-21T00:15:54.389Z,99514.56
2022-08-21T00:20:56.181Z,99512.97
2022-08-21T00:25:58.034Z,99500.38
2022-08-21T00:31:00.176Z,99512.22
2022-08-21T00:36:02.092Z,99508.03
2022-08-21T00:41:36.423Z,99496.25
2022-08-21T00:46:28.809Z,99497.03
2022-08-21T00:51:38.907Z,99508.88
2022-08-21T00:56:41.131Z,99494.50
2022-08-21T01:01:45.142Z,99497.84
2022-08-21T01:06:46.940Z,99482.63
2022-08-21T01:11:48.852Z,99478.41
2022-08-21T01:16:53.585Z,99481.09
2022-08-21T01:21:56.033Z,99468.44
2022-08-21T01:26:59.553Z,99467.66
2022-08-21T01:32:07.112Z,99467.72
2022-08-21T01:37:09.500Z,99449.88
2022-08-21T01:42:11.237Z,99456.63
2022-08-21T01:47:15.175Z,99446.47
2022-08-21T01:52:20.194Z,99440.44
2022-08-21T01:57:22.636Z,99445.34
2022-08-21T02:02:28.238Z,99437.53
2022-08-21T02:07:37.220Z,99437.53
2022-08-21T02:12:38.975Z,99426.50
2022-08-21T02:17:47.330Z,99426.34
2022-08-21T02:22:50.531Z,99428.06
2022-08-21T02:27:52.726Z,99428.06
2022-08-21T02:32:55.001Z,99428.94
2022-08-21T02:38:00.740Z,99432.53
2022-08-21T02:43:04.227Z,99435.16
2022-08-21T02:48:13.057Z,99431.69
2022-08-21T02:53:17.552Z,99430.88
2022-08-21T02:58:25.917Z,99425.00
2022-08-21T03:03:30.081Z,99428.34
2022-08-21T03:08:31.921Z,99432.59
2022-08-21T03:13:33.613Z,99435.22
2022-08-21T03:18:36.374Z,99437.00
2022-08-21T03:23:40.931Z,99431.81
2022-08-21T03:28:43.205Z,99442.88
2022-08-21T03:33:45.068Z,99441.22
2022-08-21T03:38:46.907Z,99438.66
2022-08-21T03:43:48.756Z,99448.88
2022-08-21T03:48:50.868Z,99457.47
2022-08-21T03:53:52.945Z,99454.06
2022-08-21T03:58:54.589Z,99454.06
2022-08-21T04:03:56.616Z,99448.19
2022-08-21T04:08:58.315Z,99455.91
2022-08-21T04:13:59.965Z,99460.94
2022-08-21T04:19:02.649Z,99461.03
2022-08-21T04:24:06.321Z,99472.00
2022-08-21T04:29:08.276Z,99470.31
2022-08-21T04:34:12.307Z,99467.81
2022-08-21T04:39:14.186Z,99484.81
2022-08-21T04:44:16.165Z,99489.06
2022-08-21T04:49:18.354Z,99482.91
2022-08-21T04:54:23.725Z,99478.19
2022-08-21T04:59:29.212Z,99482.03
2022-08-21T05:04:34.111Z,99486.56
2022-08-21T05:09:36.437Z,99498.44
2022-08-21T05:14:38.191Z,99479.41
2022-08-21T05:19:40.624Z,99472.09
2022-08-21T05:24:42.465Z,99472.69
2022-08-21T05:29:44.436Z,99479.88
2022-08-21T05:34:46.085Z,99484.56
2022-08-21T05:40:11.800Z,99480.09
2022-08-21T05:45:10.073Z,99475.84
2022-08-21T05:50:12.267Z,99482.91
2022-08-21T05:55:14.040Z,99487.66
2022-08-21T06:00:17.788Z,99489.94
2022-08-21T06:05:24.979Z,99484.78
2022-08-21T06:10:39.075Z,99477.84
2022-08-21T06:15:41.323Z,99475.78
2022-08-21T06:20:43.517Z,99488.28
2022-08-21T06:25:45.212Z,99479.72
2022-08-21T06:30:46.928Z,99484.22
2022-08-21T06:35:49.321Z,99490.09
2022-08-21T06:40:51.321Z,99485.72
2022-08-21T06:45:54.296Z,99491.75
2022-08-21T06:50:56.964Z,99494.97
2022-08-21T06:55:58.626Z,99490.59
2022-08-21T07:01:01.161Z,99492.00
2022-08-21T07:06:04.813Z,99496.56
2022-08-21T07:11:23.385Z,99494.00
2022-08-21T07:16:25.652Z,99484.56
2022-08-21T07:21:27.697Z,99477.28
2022-08-21T07:26:29.340Z,99485.34
2022-08-21T07:31:31.224Z,99487.56
2022-08-21T07:36:33.321Z,99485.09
2022-08-21T07:41:36.813Z,99475.97
2022-08-21T07:46:38.446Z,99486.09
2022-08-21T07:51:40.448Z,99483.88
2022-08-21T07:56:42.260Z,99476.91
2022-08-21T08:01:44.093Z,99472.31
2022-08-21T08:06:46.472Z,99476.00
2022-08-21T08:11:48.401Z,99480.84
2022-08-21T08:16:50.385Z,99480.78
2022-08-21T08:21:52.059Z,99473.56
2022-08-21T08:26:55.165Z,99481.38
2022-08-21T08:31:57.001Z,99486.31
2022-08-21T08:37:02.165Z,99477.34
2022-08-21T08:42:33.081Z,99490.28
2022-08-21T08:47:40.426Z,99482.22
2022-08-21T08:52:49.676Z,99476.06
2022-08-21T08:57:52.326Z,99473.94
2022-08-21T09:02:58.189Z,99476.75
2022-08-21T09:08:22.208Z,99480.50
2022-08-21T09:13:48.563Z,99479.38
2022-08-21T09:19:25.162Z,99481.69
2022-08-21T09:25:12.021Z,99482.63
2022-08-21T09:30:14.134Z,99465.56
2022-08-21T09:35:19.500Z,99459.91
2022-08-21T09:40:36.918Z,99466.59
2022-08-21T09:45:40.560Z,99470.66
2022-08-21T09:50:43.886Z,99463.13
2022-08-21T09:56:24.238Z,99465.28
2022-08-21T10:01:27.252Z,99450.66
2022-08-21T10:06:29.537Z,99454.56
2022-08-21T10:11:34.223Z,99451.81
2022-08-21T10:16:53.676Z,99458.03
2022-08-21T10:22:08.557Z,99456.13
2022-08-21T10:27:48.206Z,99452.66
2022-08-21T10:32:59.810Z,99446.69
2022-08-21T10:38:50.317Z,99448.56
2022-08-21T10:43:51.236Z,99447.94
2022-08-21T10:49:00.514Z,99457.47
2022-08-21T10:54:23.496Z,99459.84
2022-08-21T11:00:05.283Z,99459.97
2022-08-21T11:05:13.911Z,99456.50
2022-08-21T11:10:19.914Z,99468.69
2022-08-21T11:15:36.036Z,99460.22
2022-08-21T11:20:47.789Z,99460.22
2022-08-21T11:26:02.613Z,99452.16
2022-08-21T11:31:13.469Z,99457.09
2022-08-21T11:37:08.450Z,99441.16
2022-08-21T11:42:32.134Z,99447.19
2022-08-21T11:47:53.686Z,99449.75
2022-08-21T11:53:04.605Z,99444.44
2022-08-21T11:58:17.689Z,99438.16
2022-08-21T12:03:39.077Z,99428.34
2022-08-21T12:08:47.152Z,99453.00
2022-08-21T12:14:14.626Z,99441.91
2022-08-21T12:19:25.528Z,99445.25
2022-08-21T12:24:27.871Z,99442.03
2022-08-21T12:29:32.760Z,99435.59
2022-08-21T12:34:47.350Z,99425.22
2022-08-21T12:39:53.723Z,99435.00
2022-08-21T12:45:12.177Z,99427.44
2022-08-21T12:50:37.536Z,99426.91
2022-08-21T12:55:43.985Z,99438.16
2022-08-21T13:00:51.412Z,99435.09
2022-08-21T13:05:54.672Z,99440.56
2022-08-21T13:11:13.798Z,99445.63
2022-08-21T13:16:26.123Z,99453.88
2022-08-21T13:21:34.870Z,99459.06
2022-08-21T13:26:36.468Z,99453.84
2022-08-21T13:31:43.352Z,99460.34
2022-08-21T13:36:45.703Z,99459.56
2022-08-21T13:41:51.285Z,99456.91
2022-08-21T13:46:54.988Z,99456.09
2022-08-21T13:51:56.845Z,99439.28
2022-08-21T13:56:58.493Z,99456.19
2022-08-21T14:02:09.430Z,99441.06
2022-08-21T14:07:21.684Z,99446.22
2022-08-21T14:12:42.210Z,99443.81
2022-08-21T14:17:44.565Z,99448.09
2022-08-21T14:22:48.273Z,99456.69
2022-08-21T14:28:03.024Z,99456.88
2022-08-21T14:33:14.372Z,99451.88
2022-08-21T14:38:22.582Z,99453.72
2022-08-21T14:43:27.290Z,99448.69
2022-08-21T14:48:29.075Z,99447.75
2022-08-21T14:53:30.704Z,99453.72
2022-08-21T14:58:34.023Z,99440.53
2022-08-21T15:03:36.583Z,99443.59
2022-08-21T15:08:38.639Z,99443.66
2022-08-21T15:13:41.219Z,99452.19
2022-08-21T15:18:43.715Z,99442.66
2022-08-21T15:23:45.594Z,99442.91
2022-08-21T15:28:47.420Z,99444.53
2022-08-21T15:33:49.108Z,99447.91
2022-08-21T15:38:50.911Z,99438.72
2022-08-21T15:43:54.326Z,99447.19
2022-08-21T15:48:59.772Z,99444.63
2022-08-21T15:54:01.757Z,99443.59
2022-08-21T15:59:09.864Z,99449.56
2022-08-21T16:04:16.363Z,99441.81
2022-08-21T16:09:18.088Z,99435.09
2022-08-21T16:14:19.943Z,99437.66
2022-08-21T16:19:21.953Z,99429.25
2022-08-21T16:24:23.629Z,99438.63
2022-08-21T16:29:30.288Z,99430.03
2022-08-21T16:34:32.192Z,99438.38
2022-08-21T16:39:33.812Z,99438.47
2022-08-21T16:44:35.580Z,99435.88
2022-08-21T16:49:39.055Z,99436.75
2022-08-21T16:54:43.421Z,99426.59
2022-08-21T16:59:45.374Z,99427.34
2022-08-21T17:04:47.012Z,99429.91
2022-08-21T17:09:48.833Z,99425.75
2022-08-21T17:14:50.689Z,99415.63
2022-08-21T17:19:52.569Z,99421.00
2022-08-21T17:24:54.422Z,99420.22
2022-08-21T17:29:56.780Z,99423.56
2022-08-21T17:34:58.905Z,99424.47
2022-08-21T17:40:05.544Z,99425.34
2022-08-21T17:45:11.309Z,99429.63
2022-08-21T17:50:13.919Z,99431.38
2022-08-21T17:55:17.266Z,99431.38
2022-08-21T18:00:20.732Z,99434.97
2022-08-21T18:05:22.608Z,99440.00
2022-08-21T18:10:25.292Z,99429.00
2022-08-21T18:15:27.050Z,99435.75
2022-08-21T18:20:28.864Z,99435.06
2022-08-21T18:25:30.831Z,99441.06
2022-08-21T18:30:37.430Z,99445.22
2022-08-21T18:35:39.717Z,99467.56
2022-08-21T18:40:46.700Z,99459.66
2022-08-21T18:45:48.496Z,99461.25
2022-08-21T18:50:50.154Z,99472.16
2022-08-21T18:55:52.300Z,99486.44
2022-08-21T19:00:55.631Z,99492.13
2022-08-21T19:05:57.593Z,99498.38
2022-08-21T19:11:02.379Z,99489.09
2022-08-21T19:16:05.769Z,99497.25
2022-08-21T19:21:11.475Z,99514.72
2022-08-21T19:26:13.572Z,99506.19
2022-08-21T19:31:28.900Z,99505.59
2022-08-21T19:36:32.477Z,99520.25
2022-08-21T19:41:38.630Z,99530.72
2022-08-21T19:46:44.254Z,99531.53
2022-08-21T19:51:45.949Z,99532.59
2022-08-21T19:56:48.620Z,99542.81
2022-08-21T20:01:51.172Z,99546.69
2022-08-21T20:06:53.193Z,99542.16
2022-08-21T20:11:58.613Z,99546.66
2022-08-21T20:17:08.477Z,99553.22
2022-08-21T20:22:13.568Z,99550.63
2022-08-21T20:27:21.936Z,99539.66
2022-08-21T20:32:23.686Z,99552.47
2022-08-21T20:42:50.988Z,99552.63
2022-08-21T20:48:11.414Z,99542.78
2022-08-21T20:53:43.650Z,99542.06
2022-08-21T20:59:23.374Z,99540.13
2022-08-21T21:04:35.062Z,99545.06
2022-08-21T21:09:43.575Z,99538.28
2022-08-21T21:14:48.652Z,99531.47
2022-08-21T21:19:56.406Z,99538.13
2022-08-21T21:25:07.213Z,99524.31
2022-08-21T21:30:14.393Z,99519.22
2022-08-21T21:35:32.494Z,99525.09
2022-08-21T21:40:40.798Z,99520.13
2022-08-21T21:45:53.497Z,99524.44
2022-08-21T21:51:00.672Z,99520.03
2022-08-21T21:56:29.412Z,99519.97
2022-08-21T22:01:44.301Z,99521.63
2022-08-21T22:07:11.919Z,99524.22
2022-08-21T22:12:49.869Z,99517.47
2022-08-21T22:18:08.705Z,99517.53
2022-08-21T22:23:19.020Z,99507.34
2022-08-21T22:28:26.979Z,99502.31
2022-08-21T22:33:30.030Z,99511.72
2022-08-21T22:38:36.925Z,99501.63
2022-08-21T22:43:57.235Z,99501.69
2022-08-21T22:49:07.583Z,99504.31
2022-08-21T22:54:21.792Z,99503.41
2022-08-21T22:59:26.816Z,99498.34
2022-08-21T23:04:31.665Z,99495.78
2022-08-21T23:09:47.256Z,99490.03
2022-08-21T23:14:54.634Z,99487.59
2022-08-21T23:20:10.270Z,99483.50
2022-08-21T23:25:40.539Z,99481.94
2022-08-21T23:31:00.489Z,99471.94
2022-08-21T23:36:59.534Z,99465.09
2022-08-21T23:42:33.472Z,99469.34
2022-08-21T23:47:56.032Z,99465.16
2022-08-21T23:53:38.447Z,99472.72
2022-08-21T23:58:45.224Z,99467.63
